createdAt,value
2023-05-23T00:00:47.353Z,29.8
2023-05-23T00:03:49.481Z,24.7
2023-05-23T00:06:51.292Z,22.2
2023-05-23T00:09:53.266Z,25.9
2023-05-23T00:12:55.242Z,31
2023-05-23T00:15:57.183Z,31.9
2023-05-23T00:18:59.262Z,21.3
2023-05-23T00:22:01.129Z,22.3
2023-05-23T00:25:03.103Z,29
2023-05-23T00:28:05.063Z,34.2
2023-05-23T00:31:07.056Z,27.7
2023-05-23T00:34:08.990Z,19.9
2023-05-23T00:37:10.965Z,27.7
2023-05-23T00:40:12.925Z,19.4
2023-05-23T00:43:14.891Z,21.6
2023-05-23T00:46:16.887Z,19.1
2023-05-23T00:49:18.840Z,19.1
2023-05-23T00:52:20.829Z,20.4
2023-05-23T00:55:22.757Z,21
2023-05-23T00:58:24.737Z,24
2023-05-23T01:01:26.897Z,21.6
2023-05-23T01:04:28.675Z,24.8
2023-05-23T01:07:30.618Z,20.3
2023-05-23T01:10:32.573Z,23
2023-05-23T01:13:34.562Z,23.2
2023-05-23T01:16:36.537Z,21.2
2023-05-23T01:19:38.491Z,19.7
2023-05-23T01:22:40.473Z,18.7
2023-05-23T01:25:42.570Z,29.7
2023-05-23T01:28:44.350Z,22.6
2023-05-23T01:31:46.375Z,20.7
2023-05-23T01:34:48.283Z,25.5
2023-05-23T01:37:50.246Z,21.3
2023-05-23T01:40:52.215Z,25.6
2023-05-23T01:43:54.180Z,22.9
2023-05-23T01:46:56.165Z,22.4
2023-05-23T01:49:58.104Z,21.8
2023-05-23T01:53:00.069Z,18.7
2023-05-23T01:56:02.029Z,23.7
2023-05-23T01:59:03.979Z,18.4
2023-05-23T02:02:05.966Z,20.8
2023-05-23T02:05:07.925Z,23
2023-05-23T02:08:09.870Z,20.5
2023-05-23T02:11:11.824Z,17.4
2023-05-23T02:14:13.768Z,20
2023-05-23T02:17:15.761Z,22.5
2023-05-23T02:20:17.735Z,25.5
2023-05-23T02:23:19.710Z,21.6
2023-05-23T02:26:21.694Z,18.7
2023-05-23T02:29:23.633Z,21.1
2023-05-23T02:32:25.652Z,22.2
2023-05-23T02:35:27.567Z,22
2023-05-23T02:38:29.558Z,15
2023-05-23T02:41:31.504Z,20.8
2023-05-23T02:44:33.476Z,18.1
2023-05-23T02:47:35.460Z,17.7
2023-05-23T02:50:37.368Z,20.3
2023-05-23T02:53:39.372Z,17.6
2023-05-23T02:56:41.321Z,17.4
2023-05-23T02:59:43.289Z,18.6
2023-05-23T03:02:45.361Z,14.1
2023-05-23T03:05:47.294Z,15
2023-05-23T03:08:49.241Z,13.6
2023-05-23T03:11:51.216Z,15.6
2023-05-23T03:14:53.178Z,15.3
2023-05-23T03:17:55.238Z,12.4
2023-05-23T03:20:57.118Z,13.1
2023-05-23T03:23:59.083Z,11.5
2023-05-23T03:27:01.074Z,11.6
2023-05-23T03:30:03.065Z,12.3
2023-05-23T03:33:05.003Z,12
2023-05-23T03:36:07.311Z,12.7
2023-05-23T03:39:08.959Z,12.5
2023-05-23T03:42:10.883Z,8.7
2023-05-23T03:45:12.858Z,14.8
2023-05-23T03:48:14.825Z,11.2
2023-05-23T03:51:16.795Z,9.9
2023-05-23T03:54:18.763Z,10.8
2023-05-23T03:57:20.778Z,11.5
2023-05-23T04:00:22.806Z,9
2023-05-23T04:03:24.836Z,10.4
2023-05-23T04:06:26.757Z,10.8
2023-05-23T04:09:28.622Z,10.9
2023-05-23T04:12:30.597Z,8.1
2023-05-23T04:15:32.539Z,9.2
2023-05-23T04:18:34.501Z,7.6
2023-05-23T04:21:36.463Z,10.2
2023-05-23T04:24:38.390Z,8.2
2023-05-23T04:27:40.722Z,9.1
2023-05-23T04:30:42.365Z,8.8
2023-05-23T04:33:44.350Z,8.3
2023-05-23T04:36:46.325Z,11.3
2023-05-23T04:39:48.478Z,10.3
2023-05-23T04:42:50.274Z,9.8
2023-05-23T04:45:52.219Z,13
2023-05-23T04:48:56.925Z,14.1
2023-05-23T04:51:59.003Z,12
2023-05-23T04:55:00.876Z,17.5
2023-05-23T04:58:02.793Z,13.2
2023-05-23T05:01:04.780Z,12.2
2023-05-23T05:04:06.753Z,11.3
2023-05-23T05:07:08.692Z,13.1
2023-05-23T05:10:10.666Z,14.4
2023-05-23T05:13:12.620Z,21
2023-05-23T05:16:14.601Z,16.1
2023-05-23T05:19:16.591Z,18.9
2023-05-23T05:22:20.300Z,17.7
2023-05-23T05:25:20.475Z,18
2023-05-23T05:28:22.425Z,15.4
2023-05-23T05:31:24.427Z,17.9
2023-05-23T05:34:26.333Z,13.3
2023-05-23T05:37:28.323Z,15
2023-05-23T05:40:30.294Z,14.5
2023-05-23T05:43:32.260Z,15.3
2023-05-23T05:46:34.262Z,13.9
2023-05-23T05:49:39.547Z,13.7
2023-05-23T05:52:41.270Z,12.1
2023-05-23T05:55:43.167Z,11.6
2023-05-23T05:58:45.169Z,11.2
2023-05-23T06:01:47.090Z,10.2
2023-05-23T06:04:49.139Z,10.3
2023-05-23T06:07:51.139Z,10.5
2023-05-23T06:10:53.149Z,11.3
2023-05-23T06:13:55.086Z,9.4
2023-05-23T06:16:57.039Z,11
2023-05-23T06:19:58.998Z,10.9
2023-05-23T06:23:00.958Z,8.8
2023-05-23T06:26:02.958Z,10.3
2023-05-23T06:29:04.903Z,8.6
2023-05-23T06:32:07.001Z,9.2
2023-05-23T06:35:08.845Z,8.2
2023-05-23T06:38:10.804Z,8.4
2023-05-23T06:41:12.753Z,10.5
2023-05-23T06:44:14.713Z,8.8
2023-05-23T06:47:16.719Z,9.1
2023-05-23T06:50:18.703Z,7.2
2023-05-23T06:53:20.700Z,7.4
2023-05-23T06:56:22.593Z,10.9
2023-05-23T06:59:24.588Z,8.1
2023-05-23T07:02:26.593Z,5.9
2023-05-23T07:05:28.533Z,8
2023-05-23T07:08:30.497Z,7.2
2023-05-23T07:11:32.471Z,5.5
2023-05-23T07:14:34.431Z,3.9
2023-05-23T07:17:36.417Z,4.8
2023-05-23T07:20:38.406Z,3.6
2023-05-23T07:23:40.333Z,3.1
2023-05-23T07:26:42.284Z,3.9
2023-05-23T07:29:44.312Z,4
2023-05-23T07:32:46.333Z,3.2
2023-05-23T07:35:48.263Z,4.5
2023-05-23T07:38:50.225Z,4.2
2023-05-23T07:41:52.223Z,4
2023-05-23T07:44:54.156Z,4.6
2023-05-23T07:47:56.188Z,3.6
2023-05-23T07:50:58.096Z,5.2
2023-05-23T07:54:00.051Z,3.9
2023-05-23T07:57:02.069Z,4.4
2023-05-23T08:00:04.037Z,5.4
2023-05-23T08:03:06.021Z,4.8
2023-05-23T08:06:07.941Z,5.8
2023-05-23T08:09:09.944Z,4.8
2023-05-23T08:12:11.919Z,4.9
2023-05-23T08:15:13.855Z,3.8
2023-05-23T08:18:15.864Z,4.4
2023-05-23T08:21:17.777Z,3.6
2023-05-23T08:24:19.744Z,3.2
2023-05-23T08:27:21.701Z,4.3
2023-05-23T08:30:23.670Z,3.1
2023-05-23T08:33:25.655Z,2.8
2023-05-23T08:36:27.759Z,3.2
2023-05-23T08:39:29.589Z,6.4
2023-05-23T08:42:31.590Z,4.4
2023-05-23T08:45:33.571Z,5.9
2023-05-23T08:48:35.522Z,3.4
2023-05-23T08:51:37.473Z,2.2
2023-05-23T08:54:39.443Z,2.5
2023-05-23T08:57:41.401Z,3.5
2023-05-23T09:00:43.681Z,3.4
2023-05-23T09:03:45.354Z,2.1
2023-05-23T09:06:47.331Z,3.4
2023-05-23T09:09:49.277Z,4
2023-05-23T09:12:51.241Z,2.4
2023-05-23T09:15:53.219Z,3.7
2023-05-23T09:18:55.201Z,2.1
2023-05-23T09:21:57.220Z,3
2023-05-23T09:24:59.199Z,4.1
2023-05-23T09:28:01.175Z,2.5
2023-05-23T09:31:03.144Z,2.9
2023-05-23T09:34:05.110Z,3
2023-05-23T09:37:07.069Z,2.5
2023-05-23T09:40:09.106Z,3.7
2023-05-23T09:43:11.018Z,3.6
2023-05-23T09:46:12.991Z,3
2023-05-23T09:49:14.987Z,3.3
2023-05-23T09:52:16.945Z,2.6
2023-05-23T09:55:18.915Z,2.4
2023-05-23T09:58:20.872Z,4.1
2023-05-23T10:01:22.903Z,2.9
2023-05-23T10:04:24.805Z,2.8
2023-05-23T10:07:26.814Z,3.6
2023-05-23T10:10:28.717Z,2.5
2023-05-23T10:13:30.684Z,3.5
2023-05-23T10:16:32.712Z,2.5
2023-05-23T10:19:34.672Z,4.2
2023-05-23T10:22:36.582Z,2.6
2023-05-23T10:25:38.544Z,4.3
2023-05-23T10:28:40.576Z,3.7
2023-05-23T10:31:42.665Z,3.6
2023-05-23T10:34:44.507Z,3.1
2023-05-23T10:37:46.473Z,3.5
2023-05-23T10:40:48.486Z,3.5
2023-05-23T10:43:50.460Z,3.7
2023-05-23T10:46:52.425Z,4
2023-05-23T10:49:54.408Z,5.7
2023-05-23T10:52:56.334Z,4.6
2023-05-23T10:55:58.306Z,3.8
2023-05-23T10:59:00.319Z,5.2
2023-05-23T11:02:02.301Z,3
2023-05-23T11:05:04.237Z,4.4
2023-05-23T11:08:06.228Z,2.8
2023-05-23T11:11:08.184Z,4.5
2023-05-23T11:14:10.127Z,4.2
2023-05-23T11:17:12.114Z,3.6
2023-05-23T11:20:14.081Z,3.1
2023-05-23T11:23:16.012Z,5.1
2023-05-23T11:26:17.954Z,2.7
2023-05-23T11:29:19.946Z,3.3
2023-05-23T11:32:21.965Z,4
2023-05-23T11:35:23.840Z,2.5
2023-05-23T11:38:25.815Z,2.9
2023-05-23T11:41:27.898Z,5.4
2023-05-23T11:44:29.738Z,2.3
2023-05-23T11:47:31.761Z,2.3
2023-05-23T11:50:33.691Z,2.4
2023-05-23T11:53:35.643Z,2.8
2023-05-23T11:56:37.612Z,2.5
2023-05-23T11:59:39.592Z,3
2023-05-23T12:02:41.802Z,2.3
2023-05-23T12:05:43.478Z,1.8
2023-05-23T12:08:45.459Z,1.9
2023-05-23T12:11:47.414Z,1.7
2023-05-23T12:14:49.381Z,1.6
2023-05-23T12:17:51.389Z,6
2023-05-23T12:20:53.286Z,3
2023-05-23T12:23:55.245Z,1
2023-05-23T12:26:57.214Z,1.3
2023-05-23T12:29:59.167Z,1.4
2023-05-23T12:33:01.160Z,1.8
2023-05-23T12:36:03.104Z,1.3
2023-05-23T12:39:05.050Z,2.1
2023-05-23T12:42:07.015Z,1.2
2023-05-23T12:45:08.971Z,2.5
2023-05-23T12:48:11.036Z,1.6
2023-05-23T12:51:12.908Z,1.2
2023-05-23T12:54:14.862Z,1.9
2023-05-23T12:57:16.945Z,1.8
2023-05-23T13:00:18.878Z,1.2
2023-05-23T13:03:20.853Z,1.7
2023-05-23T13:06:22.838Z,1.5
2023-05-23T13:09:24.797Z,1.5
2023-05-23T13:12:26.775Z,2.4
2023-05-23T13:15:28.706Z,1.3
2023-05-23T13:18:30.664Z,1.3
2023-05-23T13:21:32.667Z,2
2023-05-23T13:24:34.629Z,2
2023-05-23T13:27:36.662Z,1.7
2023-05-23T13:30:38.619Z,2.7
2023-05-23T13:33:40.611Z,1.9
2023-05-23T13:36:42.589Z,3.6
2023-05-23T13:39:44.513Z,3
2023-05-23T13:42:46.476Z,4.6
2023-05-23T13:45:48.438Z,3.9
2023-05-23T13:48:50.402Z,2.7
2023-05-23T13:51:52.361Z,2.5
2023-05-23T13:54:54.341Z,4.4
2023-05-23T13:57:56.276Z,3.9
2023-05-23T14:00:58.235Z,3.3
2023-05-23T14:04:00.210Z,3.8
2023-05-23T14:07:02.204Z,5.7
2023-05-23T14:10:04.190Z,4.4
2023-05-23T14:13:06.132Z,9.4
2023-05-23T14:16:08.163Z,5.8
2023-05-23T14:19:10.071Z,4.6
2023-05-23T14:22:12.025Z,4.6
2023-05-23T14:25:13.964Z,5.5
2023-05-23T14:28:15.923Z,4.8
2023-05-23T14:31:17.977Z,10.1
2023-05-23T14:34:20.061Z,5.2
2023-05-23T14:37:21.853Z,4.7
2023-05-23T14:40:23.808Z,4.8
2023-05-23T14:43:25.786Z,5.2
2023-05-23T14:46:27.813Z,6.1
2023-05-23T14:49:29.736Z,4.9
2023-05-23T14:52:31.737Z,6.6
2023-05-23T14:55:33.646Z,5.1
2023-05-23T14:58:35.624Z,5.9
2023-05-23T15:01:39.978Z,4.1
2023-05-23T15:04:39.557Z,6.1
2023-05-23T15:07:41.633Z,6.5
2023-05-23T15:10:43.561Z,5.5
2023-05-23T15:13:45.502Z,4.4
2023-05-23T15:16:47.491Z,5.1
2023-05-23T15:19:49.429Z,5
2023-05-23T15:22:51.521Z,4.9
2023-05-23T15:25:53.630Z,4.5
2023-05-23T15:28:55.399Z,5
2023-05-23T15:31:57.315Z,6.2
2023-05-23T15:34:59.255Z,4.3
2023-05-23T15:38:01.218Z,5.1
2023-05-23T15:41:03.186Z,4.2
2023-05-23T15:44:05.159Z,4.2
2023-05-23T15:47:07.101Z,4.8
2023-05-23T15:50:09.167Z,3.9
2023-05-23T15:53:11.185Z,4.4
2023-05-23T15:56:13.070Z,4.1
2023-05-23T15:59:15.030Z,3.1
2023-05-23T16:02:17.002Z,4.1
2023-05-23T16:05:18.948Z,4.4
2023-05-23T16:08:20.885Z,3.2
2023-05-23T16:11:22.917Z,3.7
2023-05-23T16:14:24.897Z,3
2023-05-23T16:17:26.847Z,4.9
2023-05-23T16:20:28.841Z,2.7
2023-05-23T16:23:30.775Z,4.3
2023-05-23T16:26:32.754Z,5.1
2023-05-23T16:29:34.725Z,6.5
2023-05-23T16:32:36.696Z,4.6
2023-05-23T16:35:38.799Z,4.6
2023-05-23T16:38:40.608Z,4.9
2023-05-23T16:41:42.599Z,4.1
2023-05-23T16:44:44.600Z,3.3
2023-05-23T16:47:46.572Z,3.4
2023-05-23T16:50:48.521Z,5
2023-05-23T16:53:50.476Z,3.9
2023-05-23T16:56:52.452Z,7.4
2023-05-23T16:59:54.396Z,4.8
2023-05-23T17:02:56.478Z,6.1
2023-05-23T17:05:58.372Z,3.7
2023-05-23T17:09:00.326Z,3.2
2023-05-23T17:12:02.277Z,5.9
2023-05-23T17:15:04.230Z,5.8
2023-05-23T17:18:06.249Z,9.3
2023-05-23T17:21:08.156Z,3.5
2023-05-23T17:24:10.130Z,5.5
2023-05-23T17:27:12.099Z,5.1
2023-05-23T17:30:14.130Z,6.3
2023-05-23T17:33:16.034Z,5
2023-05-23T17:36:18.005Z,7.1
2023-05-23T17:39:19.961Z,5.4
2023-05-23T17:42:21.935Z,4.9
2023-05-23T17:45:23.921Z,5.5
2023-05-23T17:48:34.667Z,6
2023-05-23T17:51:27.999Z,7.3
2023-05-23T17:54:29.792Z,5.5
2023-05-23T17:57:31.774Z,6.1
2023-05-23T18:00:33.738Z,6.6
2023-05-23T18:03:35.730Z,5.6
2023-05-23T18:06:37.651Z,6.2
2023-05-23T18:09:39.625Z,5.2
2023-05-23T18:12:41.585Z,8.2
2023-05-23T18:15:43.551Z,5.3
2023-05-23T18:18:45.522Z,7.3
2023-05-23T18:21:47.489Z,6
2023-05-23T18:24:49.444Z,7.7
2023-05-23T18:27:51.453Z,5.1
2023-05-23T18:30:53.386Z,5.9
2023-05-23T18:33:55.403Z,9.1
2023-05-23T18:36:57.299Z,4.8
2023-05-23T18:39:59.271Z,6.1
2023-05-23T18:43:01.232Z,7
2023-05-23T18:46:03.271Z,5.4
2023-05-23T18:49:05.179Z,7
2023-05-23T18:52:07.183Z,7.1
2023-05-23T18:55:09.145Z,7.1
2023-05-23T18:58:11.128Z,7.4
2023-05-23T19:01:13.050Z,4.7
2023-05-23T19:04:15.120Z,6.7
2023-05-23T19:07:16.972Z,5.2
2023-05-23T19:10:18.972Z,4.1
2023-05-23T19:13:20.898Z,6.1
2023-05-23T19:16:22.937Z,4.8
2023-05-23T19:19:24.961Z,7.4
2023-05-23T19:22:29.617Z,5.8
2023-05-23T19:25:28.758Z,5.2
2023-05-23T19:28:30.716Z,5.6
2023-05-23T19:31:32.729Z,7
2023-05-23T19:34:34.667Z,4.6
2023-05-23T19:37:36.621Z,7.7
2023-05-23T19:40:38.635Z,6.1
2023-05-23T19:43:40.567Z,7.4
2023-05-23T19:46:42.533Z,6.8
2023-05-23T19:49:44.492Z,7.6
2023-05-23T19:52:46.446Z,5
2023-05-23T19:55:48.430Z,8.3
2023-05-23T19:58:50.411Z,7.6
2023-05-23T20:01:52.515Z,8.2
2023-05-23T20:04:54.354Z,7.8
2023-05-23T20:07:56.321Z,7
2023-05-23T20:10:58.418Z,6.8
2023-05-23T20:14:00.245Z,7.6
2023-05-23T20:17:02.205Z,7.9
2023-05-23T20:20:04.200Z,9.4
2023-05-23T20:23:06.135Z,11.5
2023-05-23T20:26:09.647Z,7.4
2023-05-23T20:29:10.105Z,6
2023-05-23T20:32:12.128Z,6.3
2023-05-23T20:35:14.048Z,10.1
2023-05-23T20:38:16.013Z,7.9
2023-05-23T20:41:17.967Z,8.1
2023-05-23T20:44:19.914Z,9.9
2023-05-23T20:47:21.880Z,6.1
2023-05-23T20:50:23.858Z,8.3
2023-05-23T20:53:25.822Z,8.7
2023-05-23T20:56:27.786Z,9.3
2023-05-23T20:59:29.833Z,9.9
2023-05-23T21:02:31.805Z,9
2023-05-23T21:05:33.723Z,8.1
2023-05-23T21:08:35.672Z,7.6
2023-05-23T21:11:37.639Z,7.5
2023-05-23T21:14:39.705Z,10.4
2023-05-23T21:17:41.569Z,10.2
2023-05-23T21:20:43.743Z,8.1
2023-05-23T21:23:45.639Z,9.2
2023-05-23T21:26:47.471Z,10.7
2023-05-23T21:29:49.446Z,8.8
2023-05-23T21:32:51.444Z,7.5
2023-05-23T21:35:53.388Z,7.5
2023-05-23T21:38:55.322Z,9.4
2023-05-23T21:41:57.308Z,9.1
2023-05-23T21:44:59.250Z,5.9
2023-05-23T21:48:01.371Z,5.6
2023-05-23T21:51:03.193Z,8.1
2023-05-23T21:54:05.132Z,10.7
2023-05-23T21:57:07.105Z,6.5
2023-05-23T22:00:09.087Z,8.6
2023-05-23T22:03:11.087Z,7.8
2023-05-23T22:06:13.000Z,7
2023-05-23T22:09:14.963Z,9.5
2023-05-23T22:12:17.690Z,7.5
2023-05-23T22:15:18.918Z,9.4
2023-05-23T22:18:20.874Z,8.7
2023-05-23T22:21:22.903Z,6.9
2023-05-23T22:24:24.868Z,11
2023-05-23T22:27:26.851Z,10.5
2023-05-23T22:30:28.821Z,8.9
2023-05-23T22:33:30.764Z,9.3
2023-05-23T22:36:32.701Z,8.3
2023-05-23T22:39:34.669Z,7.4
2023-05-23T22:42:36.791Z,9.3
2023-05-23T22:45:38.715Z,7.9
2023-05-23T22:48:40.662Z,7.9
2023-05-23T22:51:42.654Z,8.2
2023-05-23T22:54:44.658Z,9.3
2023-05-23T22:57:46.637Z,9.6
2023-05-23T23:00:48.608Z,8.2
2023-05-23T23:03:50.534Z,9.8
2023-05-23T23:06:52.493Z,12.4
2023-05-23T23:09:54.460Z,12.5
2023-05-23T23:12:56.444Z,9.2
2023-05-23T23:15:58.381Z,10.4
2023-05-23T23:19:00.350Z,11.4
2023-05-23T23:22:02.312Z,9.1
2023-05-23T23:25:04.257Z,9.2
2023-05-23T23:28:06.218Z,12
2023-05-23T23:31:08.189Z,9.9
2023-05-23T23:34:10.181Z,10.8
2023-05-23T23:37:12.145Z,9.4
2023-05-23T23:40:16.897Z,14.8
2023-05-23T23:43:18.830Z,8.8
2023-05-23T23:46:20.964Z,10.2
2023-05-23T23:49:22.740Z,7.4
2023-05-23T23:52:24.698Z,10.2
2023-05-23T23:55:26.653Z,10.5
2023-05-23T23:58:28.635Z,11.8
